Terminal Aerodrome Forecast
Issued by NWS

Home | Current Version | Previous Version | Text Only | Print | Product List | Glossary Off
Versions: 1 2 3 4 5 6 7 8 9 10 11 12 13 14 15 16 17 18 19 20 21 22 23 24 25

000
FTUS43 KICT 011132 AAC
TAFRSL
TAF AMD
KRSL 011132Z 0112/0212 32014KT P6SM OVC008
     FM011600 34016G24KT P6SM BKN012
     FM011800 35016G24KT P6SM BKN025
     FM012100 36015G23KT P6SM SCT020 OVC035
     FM020000 02012KT P6SM OVC035
     FM020700 36007KT P6SM SCT015 BKN025=

USA.gov is the U.S. government's official web portal to all federal, state and local government web resources and services.